sensor_id;sensor_type;location;lat;lon;timestamp;P1;durP1;ratioP1;P2;durP2;ratioP2
3331;SDS011;1678;50.94845400;5.30809100;2022-07-22T00:01:04;12.93;;;7.47;;
3331;SDS011;1678;50.94845400;5.30809100;2022-07-22T00:03:32;21.97;;;8.83;;
3331;SDS011;1678;50.94845400;5.30809100;2022-07-22T00:06:00;9.83;;;6.63;;
3331;SDS011;1678;50.94845400;5.30809100;2022-07-22T00:08:28;14.73;;;7.30;;
3331;SDS011;1678;50.94845400;5.30809100;2022-07-22T00:10:56;13.23;;;6.57;;
3331;SDS011;1678;50.94845400;5.30809100;2022-07-22T00:13:25;13.47;;;6.73;;
3331;SDS011;1678;50.94845400;5.30809100;2022-07-22T00:15:53;16.53;;;6.93;;
3331;SDS011;1678;50.94845400;5.30809100;2022-07-22T00:18:21;9.33;;;5.50;;
3331;SDS011;1678;50.94845400;5.30809100;2022-07-22T00:20:49;11.77;;;7.70;;
3331;SDS011;1678;50.94845400;5.30809100;2022-07-22T00:23:18;18.43;;;9.00;;
3331;SDS011;1678;50.94845400;5.30809100;2022-07-22T00:25:46;20.37;;;7.23;;
3331;SDS011;1678;50.94845400;5.30809100;2022-07-22T00:28:14;8.67;;;6.27;;
3331;SDS011;1678;50.94845400;5.30809100;2022-07-22T00:30:43;10.30;;;6.27;;
3331;SDS011;1678;50.94845400;5.30809100;2022-07-22T00:33:12;10.70;;;5.90;;
3331;SDS011;1678;50.94845400;5.30809100;2022-07-22T00:35:40;12.77;;;7.37;;
3331;SDS011;1678;50.94845400;5.30809100;2022-07-22T00:38:08;19.20;;;5.97;;
3331;SDS011;1678;50.94845400;5.30809100;2022-07-22T00:40:36;10.40;;;6.90;;
3331;SDS011;1678;50.94845400;5.30809100;2022-07-22T00:43:05;12.30;;;6.50;;
3331;SDS011;1678;50.94845400;5.30809100;2022-07-22T00:45:33;13.83;;;6.93;;
3331;SDS011;1678;50.94845400;5.30809100;2022-07-22T00:48:03;9.33;;;6.60;;
3331;SDS011;1678;50.94845400;5.30809100;2022-07-22T00:50:32;9.77;;;6.10;;
3331;SDS011;1678;50.94845400;5.30809100;2022-07-22T00:53:00;12.00;;;6.00;;
3331;SDS011;1678;50.94845400;5.30809100;2022-07-22T00:55:28;14.90;;;6.70;;
3331;SDS011;1678;50.94845400;5.30809100;2022-07-22T00:57:56;9.50;;;6.50;;
3331;SDS011;1678;50.94845400;5.30809100;2022-07-22T01:00:24;14.73;;;7.30;;
3331;SDS011;1678;50.94845400;5.30809100;2022-07-22T01:02:53;16.30;;;7.10;;
3331;SDS011;1678;50.94845400;5.30809100;2022-07-22T01:05:22;7.93;;;6.80;;
3331;SDS011;1678;50.94845400;5.30809100;2022-07-22T01:07:50;13.23;;;6.77;;
3331;SDS011;1678;50.94845400;5.30809100;2022-07-22T01:10:18;9.43;;;7.33;;
3331;SDS011;1678;50.94845400;5.30809100;2022-07-22T01:12:47;15.07;;;8.00;;
3331;SDS011;1678;50.94845400;5.30809100;2022-07-22T01:15:15;9.03;;;7.63;;
3331;SDS011;1678;50.94845400;5.30809100;2022-07-22T01:17:43;13.07;;;6.83;;
3331;SDS011;1678;50.94845400;5.30809100;2022-07-22T01:20:12;8.90;;;6.63;;
3331;SDS011;1678;50.94845400;5.30809100;2022-07-22T01:22:40;12.33;;;8.37;;
3331;SDS011;1678;50.94845400;5.30809100;2022-07-22T01:25:11;18.23;;;8.60;;
3331;SDS011;1678;50.94845400;5.30809100;2022-07-22T01:27:39;11.33;;;7.27;;
3331;SDS011;1678;50.94845400;5.30809100;2022-07-22T01:30:07;10.03;;;7.77;;
3331;SDS011;1678;50.94845400;5.30809100;2022-07-22T01:32:36;14.53;;;7.97;;
3331;SDS011;1678;50.94845400;5.30809100;2022-07-22T01:35:04;7.80;;;6.70;;
3331;SDS011;1678;50.94845400;5.30809100;2022-07-22T01:37:34;13.77;;;8.10;;
3331;SDS011;1678;50.94845400;5.30809100;2022-07-22T01:40:02;16.23;;;6.63;;
3331;SDS011;1678;50.94845400;5.30809100;2022-07-22T01:42:31;12.07;;;6.00;;
3331;SDS011;1678;50.94845400;5.30809100;2022-07-22T01:44:59;6.17;;;4.40;;
3331;SDS011;1678;50.94845400;5.30809100;2022-07-22T01:47:27;11.60;;;7.23;;
3331;SDS011;1678;50.94845400;5.30809100;2022-07-22T01:49:55;11.43;;;5.97;;
3331;SDS011;1678;50.94845400;5.30809100;2022-07-22T01:52:23;10.37;;;5.13;;
3331;SDS011;1678;50.94845400;5.30809100;2022-07-22T01:54:53;18.37;;;5.43;;
3331;SDS011;1678;50.94845400;5.30809100;2022-07-22T01:57:21;15.10;;;5.80;;
3331;SDS011;1678;50.94845400;5.30809100;2022-07-22T01:59:49;11.30;;;5.83;;
3331;SDS011;1678;50.94845400;5.30809100;2022-07-22T02:02:17;11.63;;;6.33;;
3331;SDS011;1678;50.94845400;5.30809100;2022-07-22T02:04:45;20.70;;;8.43;;
3331;SDS011;1678;50.94845400;5.30809100;2022-07-22T02:07:13;12.50;;;5.77;;
3331;SDS011;1678;50.94845400;5.30809100;2022-07-22T02:09:41;9.43;;;5.60;;
3331;SDS011;1678;50.94845400;5.30809100;2022-07-22T02:12:11;9.23;;;5.17;;
3331;SDS011;1678;50.94845400;5.30809100;2022-07-22T02:14:39;12.30;;;5.43;;
3331;SDS011;1678;50.94845400;5.30809100;2022-07-22T02:17:07;8.73;;;6.83;;
3331;SDS011;1678;50.94845400;5.30809100;2022-07-22T02:19:35;5.77;;;4.73;;
3331;SDS011;1678;50.94845400;5.30809100;2022-07-22T02:22:03;10.13;;;7.03;;
3331;SDS011;1678;50.94845400;5.30809100;2022-07-22T02:24:31;14.33;;;7.70;;
3331;SDS011;1678;50.94845400;5.30809100;2022-07-22T02:27:00;7.93;;;6.20;;
3331;SDS011;1678;50.94845400;5.30809100;2022-07-22T02:29:31;12.50;;;6.27;;
3331;SDS011;1678;50.94845400;5.30809100;2022-07-22T02:32:00;8.00;;;7.20;;
3331;SDS011;1678;50.94845400;5.30809100;2022-07-22T02:34:28;11.93;;;5.27;;
3331;SDS011;1678;50.94845400;5.30809100;2022-07-22T02:36:57;20.10;;;6.10;;
3331;SDS011;1678;50.94845400;5.30809100;2022-07-22T02:39:25;10.43;;;6.73;;
3331;SDS011;1678;50.94845400;5.30809100;2022-07-22T02:41:53;9.93;;;6.17;;
3331;SDS011;1678;50.94845400;5.30809100;2022-07-22T02:44:21;12.77;;;6.73;;
3331;SDS011;1678;50.94845400;5.30809100;2022-07-22T02:46:51;6.40;;;5.50;;
3331;SDS011;1678;50.94845400;5.30809100;2022-07-22T02:49:19;8.23;;;7.37;;
3331;SDS011;1678;50.94845400;5.30809100;2022-07-22T02:51:47;12.87;;;6.43;;
3331;SDS011;1678;50.94845400;5.30809100;2022-07-22T02:54:15;13.97;;;6.83;;
3331;SDS011;1678;50.94845400;5.30809100;2022-07-22T02:56:43;13.13;;;6.00;;
3331;SDS011;1678;50.94845400;5.30809100;2022-07-22T02:59:11;8.63;;;6.17;;
3331;SDS011;1678;50.94845400;5.30809100;2022-07-22T03:01:39;10.37;;;6.40;;
3331;SDS011;1678;50.94845400;5.30809100;2022-07-22T03:04:09;14.23;;;6.37;;
3331;SDS011;1678;50.94845400;5.30809100;2022-07-22T03:06:37;7.27;;;5.80;;
3331;SDS011;1678;50.94845400;5.30809100;2022-07-22T03:09:05;6.10;;;5.50;;
3331;SDS011;1678;50.94845400;5.30809100;2022-07-22T03:11:33;7.63;;;5.70;;
3331;SDS011;1678;50.94845400;5.30809100;2022-07-22T03:14:01;9.97;;;6.60;;
3331;SDS011;1678;50.94845400;5.30809100;2022-07-22T03:16:29;12.17;;;6.67;;
3331;SDS011;1678;50.94845400;5.30809100;2022-07-22T03:18:57;11.97;;;6.97;;
3331;SDS011;1678;50.94845400;5.30809100;2022-07-22T03:21:27;9.43;;;5.63;;
3331;SDS011;1678;50.94845400;5.30809100;2022-07-22T03:23:55;11.30;;;7.30;;
3331;SDS011;1678;50.94845400;5.30809100;2022-07-22T03:26:23;10.73;;;6.73;;
3331;SDS011;1678;50.94845400;5.30809100;2022-07-22T03:28:52;11.73;;;7.00;;
3331;SDS011;1678;50.94845400;5.30809100;2022-07-22T03:31:20;12.03;;;5.23;;
3331;SDS011;1678;50.94845400;5.30809100;2022-07-22T03:33:48;10.13;;;6.20;;
3331;SDS011;1678;50.94845400;5.30809100;2022-07-22T03:36:17;14.23;;;7.27;;
3331;SDS011;1678;50.94845400;5.30809100;2022-07-22T03:38:46;10.33;;;6.20;;
3331;SDS011;1678;50.94845400;5.30809100;2022-07-22T03:41:14;14.17;;;6.00;;
3331;SDS011;1678;50.94845400;5.30809100;2022-07-22T03:43:42;7.40;;;6.73;;
3331;SDS011;1678;50.94845400;5.30809100;2022-07-22T03:46:10;14.70;;;7.87;;
3331;SDS011;1678;50.94845400;5.30809100;2022-07-22T03:48:38;13.40;;;6.97;;
3331;SDS011;1678;50.94845400;5.30809100;2022-07-22T03:51:07;16.23;;;7.77;;
3331;SDS011;1678;50.94845400;5.30809100;2022-07-22T03:53:35;8.90;;;7.93;;
3331;SDS011;1678;50.94845400;5.30809100;2022-07-22T03:56:05;11.77;;;7.60;;
3331;SDS011;1678;50.94845400;5.30809100;2022-07-22T03:58:34;11.37;;;8.50;;
3331;SDS011;1678;50.94845400;5.30809100;2022-07-22T04:01:02;9.13;;;7.63;;
3331;SDS011;1678;50.94845400;5.30809100;2022-07-22T04:03:30;19.13;;;8.90;;
3331;SDS011;1678;50.94845400;5.30809100;2022-07-22T04:05:58;14.67;;;10.20;;
3331;SDS011;1678;50.94845400;5.30809100;2022-07-22T04:08:27;18.33;;;9.57;;
3331;SDS011;1678;50.94845400;5.30809100;2022-07-22T04:10:55;12.43;;;9.13;;
3331;SDS011;1678;50.94845400;5.30809100;2022-07-22T04:13:24;17.00;;;10.40;;
3331;SDS011;1678;50.94845400;5.30809100;2022-07-22T04:15:52;16.93;;;9.00;;
3331;SDS011;1678;50.94845400;5.30809100;2022-07-22T04:18:20;15.27;;;10.43;;
3331;SDS011;1678;50.94845400;5.30809100;2022-07-22T04:20:48;14.90;;;8.43;;
3331;SDS011;1678;50.94845400;5.30809100;2022-07-22T04:23:16;16.90;;;9.43;;
3331;SDS011;1678;50.94845400;5.30809100;2022-07-22T04:25:47;16.47;;;8.80;;
3331;SDS011;1678;50.94845400;5.30809100;2022-07-22T04:28:15;15.07;;;8.77;;
3331;SDS011;1678;50.94845400;5.30809100;2022-07-22T04:30:44;11.17;;;9.20;;
3331;SDS011;1678;50.94845400;5.30809100;2022-07-22T04:33:12;19.00;;;10.50;;
3331;SDS011;1678;50.94845400;5.30809100;2022-07-22T04:35:40;9.63;;;7.80;;
3331;SDS011;1678;50.94845400;5.30809100;2022-07-22T04:38:09;15.63;;;8.30;;
3331;SDS011;1678;50.94845400;5.30809100;2022-07-22T04:40:37;14.50;;;8.60;;
3331;SDS011;1678;50.94845400;5.30809100;2022-07-22T04:43:05;22.57;;;10.47;;
3331;SDS011;1678;50.94845400;5.30809100;2022-07-22T04:45:33;16.03;;;9.37;;
3331;SDS011;1678;50.94845400;5.30809100;2022-07-22T04:48:03;11.80;;;7.33;;
3331;SDS011;1678;50.94845400;5.30809100;2022-07-22T04:50:31;19.10;;;9.93;;
3331;SDS011;1678;50.94845400;5.30809100;2022-07-22T04:52:59;9.10;;;7.70;;
3331;SDS011;1678;50.94845400;5.30809100;2022-07-22T04:55:30;10.90;;;7.97;;
3331;SDS011;1678;50.94845400;5.30809100;2022-07-22T04:57:59;14.30;;;8.93;;
3331;SDS011;1678;50.94845400;5.30809100;2022-07-22T05:00:27;15.77;;;8.53;;
3331;SDS011;1678;50.94845400;5.30809100;2022-07-22T05:02:55;11.80;;;7.83;;
3331;SDS011;1678;50.94845400;5.30809100;2022-07-22T05:05:25;13.03;;;7.97;;
3331;SDS011;1678;50.94845400;5.30809100;2022-07-22T05:07:53;22.57;;;9.50;;
3331;SDS011;1678;50.94845400;5.30809100;2022-07-22T05:10:21;15.47;;;9.03;;
3331;SDS011;1678;50.94845400;5.30809100;2022-07-22T05:12:50;15.27;;;8.70;;
3331;SDS011;1678;50.94845400;5.30809100;2022-07-22T05:15:18;8.87;;;7.83;;
3331;SDS011;1678;50.94845400;5.30809100;2022-07-22T05:17:46;14.50;;;7.80;;
3331;SDS011;1678;50.94845400;5.30809100;2022-07-22T05:20:14;10.67;;;8.30;;
3331;SDS011;1678;50.94845400;5.30809100;2022-07-22T05:22:44;13.43;;;8.77;;
3331;SDS011;1678;50.94845400;5.30809100;2022-07-22T05:25:12;16.63;;;7.23;;
3331;SDS011;1678;50.94845400;5.30809100;2022-07-22T05:27:48;17.53;;;8.40;;
3331;SDS011;1678;50.94845400;5.30809100;2022-07-22T05:30:17;8.60;;;6.40;;
3331;SDS011;1678;50.94845400;5.30809100;2022-07-22T05:32:49;8.93;;;6.10;;
3331;SDS011;1678;50.94845400;5.30809100;2022-07-22T05:35:17;11.27;;;7.37;;
3331;SDS011;1678;50.94845400;5.30809100;2022-07-22T05:37:47;7.47;;;6.00;;
3331;SDS011;1678;50.94845400;5.30809100;2022-07-22T05:40:15;7.13;;;5.60;;
3331;SDS011;1678;50.94845400;5.30809100;2022-07-22T05:42:43;5.47;;;5.07;;
3331;SDS011;1678;50.94845400;5.30809100;2022-07-22T05:45:11;10.33;;;6.23;;
3331;SDS011;1678;50.94845400;5.30809100;2022-07-22T05:47:39;5.00;;;4.60;;
3331;SDS011;1678;50.94845400;5.30809100;2022-07-22T05:50:08;4.00;;;3.57;;
3331;SDS011;1678;50.94845400;5.30809100;2022-07-22T05:52:36;4.10;;;3.90;;
3331;SDS011;1678;50.94845400;5.30809100;2022-07-22T05:55:06;5.97;;;3.87;;
3331;SDS011;1678;50.94845400;5.30809100;2022-07-22T05:57:35;4.10;;;3.77;;
3331;SDS011;1678;50.94845400;5.30809100;2022-07-22T06:00:03;4.97;;;4.53;;
3331;SDS011;1678;50.94845400;5.30809100;2022-07-22T06:02:33;11.97;;;3.53;;
3331;SDS011;1678;50.94845400;5.30809100;2022-07-22T06:05:01;5.73;;;4.10;;
3331;SDS011;1678;50.94845400;5.30809100;2022-07-22T06:07:29;3.93;;;3.20;;
3331;SDS011;1678;50.94845400;5.30809100;2022-07-22T06:09:57;3.90;;;3.60;;
3331;SDS011;1678;50.94845400;5.30809100;2022-07-22T06:12:27;3.60;;;3.00;;
3331;SDS011;1678;50.94845400;5.30809100;2022-07-22T06:14:55;3.27;;;3.13;;
3331;SDS011;1678;50.94845400;5.30809100;2022-07-22T06:17:23;4.80;;;3.27;;
3331;SDS011;1678;50.94845400;5.30809100;2022-07-22T06:19:51;4.53;;;2.80;;
3331;SDS011;1678;50.94845400;5.30809100;2022-07-22T06:22:19;10.67;;;4.27;;
3331;SDS011;1678;50.94845400;5.30809100;2022-07-22T06:24:47;4.73;;;3.13;;
3331;SDS011;1678;50.94845400;5.30809100;2022-07-22T06:27:16;5.70;;;3.60;;
3331;SDS011;1678;50.94845400;5.30809100;2022-07-22T06:29:45;2.10;;;1.90;;
3331;SDS011;1678;50.94845400;5.30809100;2022-07-22T06:32:13;3.53;;;1.93;;
3331;SDS011;1678;50.94845400;5.30809100;2022-07-22T06:34:45;2.80;;;2.47;;
3331;SDS011;1678;50.94845400;5.30809100;2022-07-22T06:37:13;2.93;;;1.33;;
3331;SDS011;1678;50.94845400;5.30809100;2022-07-22T06:39:41;2.57;;;1.47;;
3331;SDS011;1678;50.94845400;5.30809100;2022-07-22T06:42:09;2.73;;;1.50;;
3331;SDS011;1678;50.94845400;5.30809100;2022-07-22T06:44:37;2.03;;;1.93;;
3331;SDS011;1678;50.94845400;5.30809100;2022-07-22T06:47:07;2.00;;;1.90;;
3331;SDS011;1678;50.94845400;5.30809100;2022-07-22T06:49:35;1.53;;;1.43;;
3331;SDS011;1678;50.94845400;5.30809100;2022-07-22T06:52:03;2.93;;;2.17;;
3331;SDS011;1678;50.94845400;5.30809100;2022-07-22T06:54:32;4.37;;;1.83;;
3331;SDS011;1678;50.94845400;5.30809100;2022-07-22T06:57:00;5.17;;;2.40;;
3331;SDS011;1678;50.94845400;5.30809100;2022-07-22T06:59:28;5.63;;;1.47;;
3331;SDS011;1678;50.94845400;5.30809100;2022-07-22T07:01:56;1.83;;;1.20;;
3331;SDS011;1678;50.94845400;5.30809100;2022-07-22T07:04:25;3.93;;;1.60;;
3331;SDS011;1678;50.94845400;5.30809100;2022-07-22T07:06:54;1.40;;;1.40;;
3331;SDS011;1678;50.94845400;5.30809100;2022-07-22T07:09:22;1.10;;;1.10;;
3331;SDS011;1678;50.94845400;5.30809100;2022-07-22T07:11:50;3.07;;;1.93;;
3331;SDS011;1678;50.94845400;5.30809100;2022-07-22T07:14:18;2.77;;;1.67;;
3331;SDS011;1678;50.94845400;5.30809100;2022-07-22T07:16:46;1.20;;;1.20;;
3331;SDS011;1678;50.94845400;5.30809100;2022-07-22T07:19:14;1.37;;;1.27;;
3331;SDS011;1678;50.94845400;5.30809100;2022-07-22T07:21:44;1.67;;;1.57;;
3331;SDS011;1678;50.94845400;5.30809100;2022-07-22T07:24:15;3.23;;;2.20;;
3331;SDS011;1678;50.94845400;5.30809100;2022-07-22T07:26:43;2.87;;;1.00;;
3331;SDS011;1678;50.94845400;5.30809100;2022-07-22T07:29:11;2.60;;;1.37;;
3331;SDS011;1678;50.94845400;5.30809100;2022-07-22T07:31:39;2.40;;;1.73;;
3331;SDS011;1678;50.94845400;5.30809100;2022-07-22T07:34:08;4.93;;;1.33;;
3331;SDS011;1678;50.94845400;5.30809100;2022-07-22T07:36:36;1.10;;;1.07;;
3331;SDS011;1678;50.94845400;5.30809100;2022-07-22T07:39:05;1.43;;;1.33;;
3331;SDS011;1678;50.94845400;5.30809100;2022-07-22T07:41:34;1.80;;;1.63;;
3331;SDS011;1678;50.94845400;5.30809100;2022-07-22T07:44:02;1.70;;;1.60;;
3331;SDS011;1678;50.94845400;5.30809100;2022-07-22T07:46:30;3.13;;;1.37;;
3331;SDS011;1678;50.94845400;5.30809100;2022-07-22T07:48:58;3.50;;;1.57;;
3331;SDS011;1678;50.94845400;5.30809100;2022-07-22T07:51:27;2.77;;;1.73;;
3331;SDS011;1678;50.94845400;5.30809100;2022-07-22T07:53:55;1.13;;;1.13;;
3331;SDS011;1678;50.94845400;5.30809100;2022-07-22T07:56:24;2.40;;;2.17;;
3331;SDS011;1678;50.94845400;5.30809100;2022-07-22T07:58:52;2.43;;;1.50;;
3331;SDS011;1678;50.94845400;5.30809100;2022-07-22T08:01:40;1.23;;;1.13;;
3331;SDS011;1678;50.94845400;5.30809100;2022-07-22T08:04:26;2.20;;;1.77;;
3331;SDS011;1678;50.94845400;5.30809100;2022-07-22T08:07:08;3.90;;;1.73;;
3331;SDS011;1678;50.94845400;5.30809100;2022-07-22T08:09:36;1.47;;;0.97;;
3331;SDS011;1678;50.94845400;5.30809100;2022-07-22T08:12:06;1.93;;;1.60;;
3331;SDS011;1678;50.94845400;5.30809100;2022-07-22T08:14:34;1.50;;;1.40;;
3331;SDS011;1678;50.94845400;5.30809100;2022-07-22T08:17:02;4.60;;;1.57;;
3331;SDS011;1678;50.94845400;5.30809100;2022-07-22T08:19:31;2.57;;;1.33;;
3331;SDS011;1678;50.94845400;5.30809100;2022-07-22T08:21:59;1.17;;;1.17;;
3331;SDS011;1678;50.94845400;5.30809100;2022-07-22T08:24:27;1.77;;;1.77;;
3331;SDS011;1678;50.94845400;5.30809100;2022-07-22T08:26:55;1.20;;;0.97;;
3331;SDS011;1678;50.94845400;5.30809100;2022-07-22T08:29:25;1.50;;;1.40;;
3331;SDS011;1678;50.94845400;5.30809100;2022-07-22T08:31:53;1.37;;;1.27;;
3331;SDS011;1678;50.94845400;5.30809100;2022-07-22T08:34:21;2.60;;;1.90;;
3331;SDS011;1678;50.94845400;5.30809100;2022-07-22T08:36:49;2.43;;;1.67;;
3331;SDS011;1678;50.94845400;5.30809100;2022-07-22T08:39:17;2.23;;;1.90;;
3331;SDS011;1678;50.94845400;5.30809100;2022-07-22T08:41:48;3.27;;;2.00;;
3331;SDS011;1678;50.94845400;5.30809100;2022-07-22T08:44:17;4.17;;;1.20;;
3331;SDS011;1678;50.94845400;5.30809100;2022-07-22T08:46:46;3.23;;;1.77;;
3331;SDS011;1678;50.94845400;5.30809100;2022-07-22T08:49:15;2.50;;;1.37;;
3331;SDS011;1678;50.94845400;5.30809100;2022-07-22T08:51:44;4.00;;;1.53;;
3331;SDS011;1678;50.94845400;5.30809100;2022-07-22T08:54:13;4.03;;;1.60;;
3331;SDS011;1678;50.94845400;5.30809100;2022-07-22T08:56:41;5.70;;;1.90;;
3331;SDS011;1678;50.94845400;5.30809100;2022-07-22T08:59:12;2.80;;;2.00;;
3331;SDS011;1678;50.94845400;5.30809100;2022-07-22T09:01:44;1.53;;;1.43;;
3331;SDS011;1678;50.94845400;5.30809100;2022-07-22T09:04:30;2.20;;;1.70;;
3331;SDS011;1678;50.94845400;5.30809100;2022-07-22T09:06:59;3.00;;;1.97;;
3331;SDS011;1678;50.94845400;5.30809100;2022-07-22T09:09:31;1.63;;;1.33;;
3331;SDS011;1678;50.94845400;5.30809100;2022-07-22T09:12:03;2.93;;;1.80;;
3331;SDS011;1678;50.94845400;5.30809100;2022-07-22T09:14:43;2.23;;;1.60;;
3331;SDS011;1678;50.94845400;5.30809100;2022-07-22T09:17:23;5.17;;;1.27;;
3331;SDS011;1678;50.94845400;5.30809100;2022-07-22T09:19:52;1.83;;;1.40;;
3331;SDS011;1678;50.94845400;5.30809100;2022-07-22T09:22:29;2.70;;;1.53;;
3331;SDS011;1678;50.94845400;5.30809100;2022-07-22T09:24:59;1.60;;;1.60;;
3331;SDS011;1678;50.94845400;5.30809100;2022-07-22T09:27:48;5.67;;;2.30;;
3331;SDS011;1678;50.94845400;5.30809100;2022-07-22T09:30:19;1.70;;;1.60;;
3331;SDS011;1678;50.94845400;5.30809100;2022-07-22T09:32:51;4.40;;;1.70;;
3331;SDS011;1678;50.94845400;5.30809100;2022-07-22T09:35:22;3.07;;;1.70;;
3331;SDS011;1678;50.94845400;5.30809100;2022-07-22T09:37:52;6.63;;;2.60;;
3331;SDS011;1678;50.94845400;5.30809100;2022-07-22T09:40:22;3.27;;;2.77;;
3331;SDS011;1678;50.94845400;5.30809100;2022-07-22T09:42:52;3.07;;;1.87;;
3331;SDS011;1678;50.94845400;5.30809100;2022-07-22T09:45:23;13.13;;;3.17;;
3331;SDS011;1678;50.94845400;5.30809100;2022-07-22T09:47:55;2.10;;;1.90;;
3331;SDS011;1678;50.94845400;5.30809100;2022-07-22T09:50:25;4.37;;;2.03;;
3331;SDS011;1678;50.94845400;5.30809100;2022-07-22T09:52:55;2.23;;;2.03;;
3331;SDS011;1678;50.94845400;5.30809100;2022-07-22T09:55:29;2.73;;;2.13;;
3331;SDS011;1678;50.94845400;5.30809100;2022-07-22T09:57:59;2.67;;;2.30;;
3331;SDS011;1678;50.94845400;5.30809100;2022-07-22T10:00:27;1.73;;;1.50;;
3331;SDS011;1678;50.94845400;5.30809100;2022-07-22T10:02:58;2.17;;;2.07;;
3331;SDS011;1678;50.94845400;5.30809100;2022-07-22T10:05:29;1.97;;;1.80;;
3331;SDS011;1678;50.94845400;5.30809100;2022-07-22T10:07:59;3.20;;;2.00;;
3331;SDS011;1678;50.94845400;5.30809100;2022-07-22T10:10:29;6.30;;;1.83;;
3331;SDS011;1678;50.94845400;5.30809100;2022-07-22T10:12:58;3.63;;;2.23;;
3331;SDS011;1678;50.94845400;5.30809100;2022-07-22T10:15:29;1.70;;;1.60;;
3331;SDS011;1678;50.94845400;5.30809100;2022-07-22T10:18:02;1.77;;;1.77;;
3331;SDS011;1678;50.94845400;5.30809100;2022-07-22T10:20:34;2.13;;;2.03;;
3331;SDS011;1678;50.94845400;5.30809100;2022-07-22T10:23:03;7.27;;;1.70;;
3331;SDS011;1678;50.94845400;5.30809100;2022-07-22T10:25:48;1.90;;;1.60;;
3331;SDS011;1678;50.94845400;5.30809100;2022-07-22T10:28:22;3.17;;;2.03;;
3331;SDS011;1678;50.94845400;5.30809100;2022-07-22T10:30:51;3.40;;;2.10;;
3331;SDS011;1678;50.94845400;5.30809100;2022-07-22T10:33:24;7.10;;;3.03;;
3331;SDS011;1678;50.94845400;5.30809100;2022-07-22T10:35:58;2.80;;;1.83;;
3331;SDS011;1678;50.94845400;5.30809100;2022-07-22T10:38:28;4.37;;;2.13;;
3331;SDS011;1678;50.94845400;5.30809100;2022-07-22T10:40:58;4.20;;;2.13;;
3331;SDS011;1678;50.94845400;5.30809100;2022-07-22T10:43:28;2.57;;;2.37;;
3331;SDS011;1678;50.94845400;5.30809100;2022-07-22T10:45:57;5.23;;;2.27;;
3331;SDS011;1678;50.94845400;5.30809100;2022-07-22T10:51:19;2.77;;;2.57;;
3331;SDS011;1678;50.94845400;5.30809100;2022-07-22T10:53:52;2.20;;;2.03;;
3331;SDS011;1678;50.94845400;5.30809100;2022-07-22T10:56:23;1.87;;;1.57;;
3331;SDS011;1678;50.94845400;5.30809100;2022-07-22T10:58:54;5.13;;;2.60;;
3331;SDS011;1678;50.94845400;5.30809100;2022-07-22T11:01:25;1.90;;;1.80;;
3331;SDS011;1678;50.94845400;5.30809100;2022-07-22T11:03:56;1.80;;;1.70;;
3331;SDS011;1678;50.94845400;5.30809100;2022-07-22T11:06:44;2.00;;;1.90;;
3331;SDS011;1678;50.94845400;5.30809100;2022-07-22T11:09:14;2.43;;;2.30;;
3331;SDS011;1678;50.94845400;5.30809100;2022-07-22T11:11:45;2.37;;;2.23;;
3331;SDS011;1678;50.94845400;5.30809100;2022-07-22T11:14:16;2.57;;;2.47;;
3331;SDS011;1678;50.94845400;5.30809100;2022-07-22T11:16:47;4.23;;;1.60;;
3331;SDS011;1678;50.94845400;5.30809100;2022-07-22T11:19:20;2.63;;;2.43;;
3331;SDS011;1678;50.94845400;5.30809100;2022-07-22T11:21:51;2.40;;;2.20;;
3331;SDS011;1678;50.94845400;5.30809100;2022-07-22T11:24:20;3.83;;;2.90;;
3331;SDS011;1678;50.94845400;5.30809100;2022-07-22T11:26:49;2.93;;;2.17;;
3331;SDS011;1678;50.94845400;5.30809100;2022-07-22T11:29:23;2.10;;;1.87;;
3331;SDS011;1678;50.94845400;5.30809100;2022-07-22T11:31:53;2.00;;;1.90;;
3331;SDS011;1678;50.94845400;5.30809100;2022-07-22T11:34:22;4.03;;;2.00;;
3331;SDS011;1678;50.94845400;5.30809100;2022-07-22T11:36:53;2.50;;;2.40;;
3331;SDS011;1678;50.94845400;5.30809100;2022-07-22T11:39:22;1.80;;;1.70;;
3331;SDS011;1678;50.94845400;5.30809100;2022-07-22T11:41:52;9.23;;;2.43;;
3331;SDS011;1678;50.94845400;5.30809100;2022-07-22T11:44:21;4.70;;;2.13;;
3331;SDS011;1678;50.94845400;5.30809100;2022-07-22T11:46:51;5.00;;;2.10;;
3331;SDS011;1678;50.94845400;5.30809100;2022-07-22T11:49:20;4.77;;;2.80;;
3331;SDS011;1678;50.94845400;5.30809100;2022-07-22T11:51:48;1.83;;;1.73;;
3331;SDS011;1678;50.94845400;5.30809100;2022-07-22T11:54:19;5.60;;;1.93;;
3331;SDS011;1678;50.94845400;5.30809100;2022-07-22T11:56:47;2.20;;;2.10;;
3331;SDS011;1678;50.94845400;5.30809100;2022-07-22T11:59:22;6.90;;;2.40;;
3331;SDS011;1678;50.94845400;5.30809100;2022-07-22T12:01:50;4.77;;;1.67;;
3331;SDS011;1678;50.94845400;5.30809100;2022-07-22T12:04:20;1.60;;;1.50;;
3331;SDS011;1678;50.94845400;5.30809100;2022-07-22T12:06:50;1.50;;;1.40;;
3331;SDS011;1678;50.94845400;5.30809100;2022-07-22T12:09:22;3.97;;;2.23;;
3331;SDS011;1678;50.94845400;5.30809100;2022-07-22T12:11:52;6.23;;;2.10;;
3331;SDS011;1678;50.94845400;5.30809100;2022-07-22T12:14:23;2.63;;;2.30;;
3331;SDS011;1678;50.94845400;5.30809100;2022-07-22T12:16:56;2.73;;;1.90;;
3331;SDS011;1678;50.94845400;5.30809100;2022-07-22T12:19:26;2.53;;;2.33;;
3331;SDS011;1678;50.94845400;5.30809100;2022-07-22T12:21:56;2.67;;;1.60;;
3331;SDS011;1678;50.94845400;5.30809100;2022-07-22T12:24:29;3.20;;;2.33;;
3331;SDS011;1678;50.94845400;5.30809100;2022-07-22T12:26:59;1.67;;;1.67;;
3331;SDS011;1678;50.94845400;5.30809100;2022-07-22T12:29:29;2.23;;;2.03;;
3331;SDS011;1678;50.94845400;5.30809100;2022-07-22T12:31:58;1.33;;;1.23;;
3331;SDS011;1678;50.94845400;5.30809100;2022-07-22T12:34:32;2.97;;;2.30;;
3331;SDS011;1678;50.94845400;5.30809100;2022-07-22T12:37:16;2.87;;;1.90;;
3331;SDS011;1678;50.94845400;5.30809100;2022-07-22T12:39:58;1.80;;;1.70;;
3331;SDS011;1678;50.94845400;5.30809100;2022-07-22T12:42:28;4.30;;;2.47;;
3331;SDS011;1678;50.94845400;5.30809100;2022-07-22T12:45:02;1.80;;;1.70;;
3331;SDS011;1678;50.94845400;5.30809100;2022-07-22T12:47:42;4.00;;;2.57;;
3331;SDS011;1678;50.94845400;5.30809100;2022-07-22T12:50:22;2.03;;;1.93;;
3331;SDS011;1678;50.94845400;5.30809100;2022-07-22T12:52:53;1.93;;;1.53;;
3331;SDS011;1678;50.94845400;5.30809100;2022-07-22T12:55:42;2.27;;;2.17;;
3331;SDS011;1678;50.94845400;5.30809100;2022-07-22T12:58:11;9.37;;;2.67;;
3331;SDS011;1678;50.94845400;5.30809100;2022-07-22T13:00:42;1.70;;;1.60;;
3331;SDS011;1678;50.94845400;5.30809100;2022-07-22T13:03:12;2.60;;;2.07;;
3331;SDS011;1678;50.94845400;5.30809100;2022-07-22T13:05:41;1.47;;;1.47;;
3331;SDS011;1678;50.94845400;5.30809100;2022-07-22T13:08:09;1.87;;;1.77;;
3331;SDS011;1678;50.94845400;5.30809100;2022-07-22T13:10:38;2.10;;;1.80;;
3331;SDS011;1678;50.94845400;5.30809100;2022-07-22T13:13:08;1.60;;;1.50;;
3331;SDS011;1678;50.94845400;5.30809100;2022-07-22T13:15:36;2.77;;;1.93;;
3331;SDS011;1678;50.94845400;5.30809100;2022-07-22T13:18:05;1.90;;;1.80;;
3331;SDS011;1678;50.94845400;5.30809100;2022-07-22T13:20:33;2.23;;;2.10;;
3331;SDS011;1678;50.94845400;5.30809100;2022-07-22T13:23:02;6.10;;;2.87;;